sensor_id;sensor_type;location;lat;lon;timestamp;temperature;humidity
19397;DHT22;9834;48.076;11.878;2024-03-07T00:00:56;3.30;99.90
19397;DHT22;9834;48.076;11.878;2024-03-07T00:03:29;3.50;99.90
19397;DHT22;9834;48.076;11.878;2024-03-07T00:05:59;3.40;99.90
19397;DHT22;9834;48.076;11.878;2024-03-07T00:08:28;3.40;99.90
19397;DHT22;9834;48.076;11.878;2024-03-07T00:10:59;3.40;99.90
19397;DHT22;9834;48.076;11.878;2024-03-07T00:13:27;3.40;99.90
19397;DHT22;9834;48.076;11.878;2024-03-07T00:15:56;3.40;99.90
19397;DHT22;9834;48.076;11.878;2024-03-07T00:18:23;3.40;99.90
19397;DHT22;9834;48.076;11.878;2024-03-07T00:20:51;3.30;99.90
19397;DHT22;9834;48.076;11.878;2024-03-07T00:23:22;3.30;99.90
19397;DHT22;9834;48.076;11.878;2024-03-07T00:25:52;3.30;99.90
19397;DHT22;9834;48.076;11.878;2024-03-07T00:28:19;3.30;99.90
19397;DHT22;9834;48.076;11.878;2024-03-07T00:30:47;3.30;99.90
19397;DHT22;9834;48.076;11.878;2024-03-07T00:33:20;3.20;99.90
19397;DHT22;9834;48.076;11.878;2024-03-07T00:35:48;3.30;99.90
19397;DHT22;9834;48.076;11.878;2024-03-07T00:38:17;3.30;99.90
19397;DHT22;9834;48.076;11.878;2024-03-07T00:40:45;3.30;99.90
19397;DHT22;9834;48.076;11.878;2024-03-07T00:43:12;3.20;99.90
19397;DHT22;9834;48.076;11.878;2024-03-07T00:45:44;3.20;99.90
19397;DHT22;9834;48.076;11.878;2024-03-07T00:48:16;3.20;99.90
19397;DHT22;9834;48.076;11.878;2024-03-07T00:50:46;3.10;99.90
19397;DHT22;9834;48.076;11.878;2024-03-07T00:53:16;3.20;99.90
19397;DHT22;9834;48.076;11.878;2024-03-07T00:55:47;3.20;99.90
19397;DHT22;9834;48.076;11.878;2024-03-07T00:58:16;3.20;99.90
19397;DHT22;9834;48.076;11.878;2024-03-07T01:00:43;3.10;99.90
19397;DHT22;9834;48.076;11.878;2024-03-07T01:03:12;3.10;99.90
19397;DHT22;9834;48.076;11.878;2024-03-07T01:05:40;3.10;99.90
19397;DHT22;9834;48.076;11.878;2024-03-07T01:08:07;3.10;99.90
19397;DHT22;9834;48.076;11.878;2024-03-07T01:10:37;3.20;99.90
19397;DHT22;9834;48.076;11.878;2024-03-07T01:13:06;3.20;99.90
19397;DHT22;9834;48.076;11.878;2024-03-07T01:15:34;3.20;99.90
19397;DHT22;9834;48.076;11.878;2024-03-07T01:18:03;3.20;99.90
19397;DHT22;9834;48.076;11.878;2024-03-07T01:20:33;3.10;99.90
19397;DHT22;9834;48.076;11.878;2024-03-07T01:23:04;3.10;99.90
19397;DHT22;9834;48.076;11.878;2024-03-07T01:25:31;3.20;99.90
19397;DHT22;9834;48.076;11.878;2024-03-07T01:28:01;3.20;99.90
19397;DHT22;9834;48.076;11.878;2024-03-07T01:30:30;3.20;99.90
19397;DHT22;9834;48.076;11.878;2024-03-07T01:32:57;3.20;99.90
19397;DHT22;9834;48.076;11.878;2024-03-07T01:35:25;3.20;99.90
19397;DHT22;9834;48.076;11.878;2024-03-07T01:37:53;3.20;99.90
19397;DHT22;9834;48.076;11.878;2024-03-07T01:40:21;3.30;99.90
19397;DHT22;9834;48.076;11.878;2024-03-07T01:42:49;3.30;99.90
19397;DHT22;9834;48.076;11.878;2024-03-07T01:45:21;3.30;99.90
19397;DHT22;9834;48.076;11.878;2024-03-07T01:47:48;3.30;99.90
19397;DHT22;9834;48.076;11.878;2024-03-07T01:50:17;3.50;99.90
19397;DHT22;9834;48.076;11.878;2024-03-07T01:52:48;3.30;99.90
19397;DHT22;9834;48.076;11.878;2024-03-07T01:55:18;3.30;99.90
19397;DHT22;9834;48.076;11.878;2024-03-07T01:57:58;3.30;99.90
19397;DHT22;9834;48.076;11.878;2024-03-07T02:00:28;3.30;99.90
19397;DHT22;9834;48.076;11.878;2024-03-07T02:03:04;3.40;99.90
19397;DHT22;9834;48.076;11.878;2024-03-07T02:05:34;3.30;99.90
19397;DHT22;9834;48.076;11.878;2024-03-07T02:08:01;3.30;99.90
19397;DHT22;9834;48.076;11.878;2024-03-07T02:10:30;3.30;99.90
19397;DHT22;9834;48.076;11.878;2024-03-07T02:12:57;3.30;99.90
19397;DHT22;9834;48.076;11.878;2024-03-07T02:15:27;3.30;99.90
19397;DHT22;9834;48.076;11.878;2024-03-07T02:18:11;3.30;99.90
19397;DHT22;9834;48.076;11.878;2024-03-07T02:20:44;3.30;99.90
19397;DHT22;9834;48.076;11.878;2024-03-07T02:23:12;3.30;99.90
19397;DHT22;9834;48.076;11.878;2024-03-07T02:25:43;3.30;99.90
19397;DHT22;9834;48.076;11.878;2024-03-07T02:28:10;3.30;99.90
19397;DHT22;9834;48.076;11.878;2024-03-07T02:30:40;3.30;99.90
19397;DHT22;9834;48.076;11.878;2024-03-07T02:33:07;3.30;99.90
19397;DHT22;9834;48.076;11.878;2024-03-07T02:35:38;3.30;99.90
19397;DHT22;9834;48.076;11.878;2024-03-07T02:38:11;3.30;99.90
19397;DHT22;9834;48.076;11.878;2024-03-07T02:40:43;3.40;99.90
19397;DHT22;9834;48.076;11.878;2024-03-07T02:43:12;3.30;99.90
19397;DHT22;9834;48.076;11.878;2024-03-07T02:45:40;3.30;99.90
19397;DHT22;9834;48.076;11.878;2024-03-07T02:48:10;3.30;99.90
19397;DHT22;9834;48.076;11.878;2024-03-07T02:50:41;3.30;99.90
19397;DHT22;9834;48.076;11.878;2024-03-07T02:53:11;3.30;99.90
19397;DHT22;9834;48.076;11.878;2024-03-07T02:55:38;3.30;99.90
19397;DHT22;9834;48.076;11.878;2024-03-07T02:58:10;3.30;99.90
19397;DHT22;9834;48.076;11.878;2024-03-07T03:00:37;3.30;99.90
19397;DHT22;9834;48.076;11.878;2024-03-07T03:03:07;3.30;99.90
19397;DHT22;9834;48.076;11.878;2024-03-07T03:05:39;3.30;99.90
19397;DHT22;9834;48.076;11.878;2024-03-07T03:08:07;3.30;99.90
19397;DHT22;9834;48.076;11.878;2024-03-07T03:10:41;3.40;99.90
19397;DHT22;9834;48.076;11.878;2024-03-07T03:13:10;3.30;99.90
19397;DHT22;9834;48.076;11.878;2024-03-07T03:15:39;3.40;99.90
19397;DHT22;9834;48.076;11.878;2024-03-07T03:18:06;3.30;99.90
19397;DHT22;9834;48.076;11.878;2024-03-07T03:20:35;3.30;99.90
19397;DHT22;9834;48.076;11.878;2024-03-07T03:23:05;3.40;99.90
19397;DHT22;9834;48.076;11.878;2024-03-07T03:25:38;3.40;99.90
19397;DHT22;9834;48.076;11.878;2024-03-07T03:28:10;3.50;99.90
19397;DHT22;9834;48.076;11.878;2024-03-07T03:30:37;3.40;99.90
19397;DHT22;9834;48.076;11.878;2024-03-07T03:33:06;3.40;99.90
19397;DHT22;9834;48.076;11.878;2024-03-07T03:35:37;3.40;99.90
19397;DHT22;9834;48.076;11.878;2024-03-07T03:38:08;3.40;99.90
19397;DHT22;9834;48.076;11.878;2024-03-07T03:40:41;3.50;99.90
19397;DHT22;9834;48.076;11.878;2024-03-07T03:43:10;3.50;99.90
19397;DHT22;9834;48.076;11.878;2024-03-07T03:45:37;3.60;99.90
19397;DHT22;9834;48.076;11.878;2024-03-07T03:48:05;3.40;99.90
19397;DHT22;9834;48.076;11.878;2024-03-07T03:50:33;3.40;99.90
19397;DHT22;9834;48.076;11.878;2024-03-07T03:53:03;3.40;99.90
19397;DHT22;9834;48.076;11.878;2024-03-07T03:55:32;3.40;99.90
19397;DHT22;9834;48.076;11.878;2024-03-07T03:58:03;3.50;99.90
19397;DHT22;9834;48.076;11.878;2024-03-07T04:00:33;3.50;99.90
19397;DHT22;9834;48.076;11.878;2024-03-07T04:03:00;3.50;99.90
19397;DHT22;9834;48.076;11.878;2024-03-07T04:05:32;3.50;99.90
19397;DHT22;9834;48.076;11.878;2024-03-07T04:07:59;3.40;99.90
19397;DHT22;9834;48.076;11.878;2024-03-07T04:10:29;3.40;99.90
19397;DHT22;9834;48.076;11.878;2024-03-07T04:12:56;3.40;99.90
19397;DHT22;9834;48.076;11.878;2024-03-07T04:15:28;3.40;99.90
19397;DHT22;9834;48.076;11.878;2024-03-07T04:17:59;3.40;99.90
19397;DHT22;9834;48.076;11.878;2024-03-07T04:20:27;3.40;99.90
19397;DHT22;9834;48.076;11.878;2024-03-07T04:23:02;3.40;99.90
19397;DHT22;9834;48.076;11.878;2024-03-07T04:25:34;3.50;99.90
19397;DHT22;9834;48.076;11.878;2024-03-07T04:28:04;3.50;99.90
19397;DHT22;9834;48.076;11.878;2024-03-07T04:30:31;3.50;99.90
19397;DHT22;9834;48.076;11.878;2024-03-07T04:33:08;3.50;99.90
19397;DHT22;9834;48.076;11.878;2024-03-07T04:35:36;3.50;99.90
19397;DHT22;9834;48.076;11.878;2024-03-07T04:38:04;3.50;99.90
19397;DHT22;9834;48.076;11.878;2024-03-07T04:40:37;3.60;99.90
19397;DHT22;9834;48.076;11.878;2024-03-07T04:43:05;3.50;99.90
19397;DHT22;9834;48.076;11.878;2024-03-07T04:45:35;3.60;99.90
19397;DHT22;9834;48.076;11.878;2024-03-07T04:48:09;3.70;99.90
19397;DHT22;9834;48.076;11.878;2024-03-07T04:50:36;3.60;99.90
19397;DHT22;9834;48.076;11.878;2024-03-07T04:53:06;3.50;99.90
19397;DHT22;9834;48.076;11.878;2024-03-07T04:55:34;3.50;99.90
19397;DHT22;9834;48.076;11.878;2024-03-07T04:58:02;3.50;99.90
19397;DHT22;9834;48.076;11.878;2024-03-07T05:00:29;3.60;99.90
19397;DHT22;9834;48.076;11.878;2024-03-07T05:03:02;3.70;99.90
19397;DHT22;9834;48.076;11.878;2024-03-07T05:05:31;3.70;99.90
19397;DHT22;9834;48.076;11.878;2024-03-07T05:08:08;3.70;99.90
19397;DHT22;9834;48.076;11.878;2024-03-07T05:10:37;3.70;99.90
19397;DHT22;9834;48.076;11.878;2024-03-07T05:13:07;3.70;99.90
19397;DHT22;9834;48.076;11.878;2024-03-07T05:15:41;3.50;99.90
19397;DHT22;9834;48.076;11.878;2024-03-07T05:18:08;3.70;99.90
19397;DHT22;9834;48.076;11.878;2024-03-07T05:20:42;3.80;99.90
19397;DHT22;9834;48.076;11.878;2024-03-07T05:23:14;3.70;99.90
19397;DHT22;9834;48.076;11.878;2024-03-07T05:25:41;3.70;99.90
19397;DHT22;9834;48.076;11.878;2024-03-07T05:28:12;3.80;99.90
19397;DHT22;9834;48.076;11.878;2024-03-07T05:30:42;3.80;99.90
19397;DHT22;9834;48.076;11.878;2024-03-07T05:33:09;3.90;99.90
19397;DHT22;9834;48.076;11.878;2024-03-07T05:35:36;3.90;99.90
19397;DHT22;9834;48.076;11.878;2024-03-07T05:38:05;3.80;99.90
19397;DHT22;9834;48.076;11.878;2024-03-07T05:40:32;4.30;99.90
19397;DHT22;9834;48.076;11.878;2024-03-07T05:42:59;3.80;99.90
19397;DHT22;9834;48.076;11.878;2024-03-07T05:45:26;3.80;99.90
19397;DHT22;9834;48.076;11.878;2024-03-07T05:47:53;3.80;99.90
19397;DHT22;9834;48.076;11.878;2024-03-07T05:50:27;3.80;99.90
19397;DHT22;9834;48.076;11.878;2024-03-07T05:52:54;3.70;99.90
19397;DHT22;9834;48.076;11.878;2024-03-07T05:55:23;4.00;99.90
19397;DHT22;9834;48.076;11.878;2024-03-07T05:57:50;3.70;99.90
19397;DHT22;9834;48.076;11.878;2024-03-07T06:00:18;3.70;99.90
19397;DHT22;9834;48.076;11.878;2024-03-07T06:02:52;3.70;99.90
19397;DHT22;9834;48.076;11.878;2024-03-07T06:05:20;3.80;99.90
19397;DHT22;9834;48.076;11.878;2024-03-07T06:07:49;3.70;99.90
19397;DHT22;9834;48.076;11.878;2024-03-07T06:10:18;3.70;99.90
19397;DHT22;9834;48.076;11.878;2024-03-07T06:12:51;3.70;99.90
19397;DHT22;9834;48.076;11.878;2024-03-07T06:15:18;3.70;99.90
19397;DHT22;9834;48.076;11.878;2024-03-07T06:17:46;3.80;99.90
19397;DHT22;9834;48.076;11.878;2024-03-07T06:20:14;3.70;99.90
19397;DHT22;9834;48.076;11.878;2024-03-07T06:22:48;3.60;99.90
19397;DHT22;9834;48.076;11.878;2024-03-07T06:25:18;3.70;99.90
19397;DHT22;9834;48.076;11.878;2024-03-07T06:27:49;3.80;99.90
19397;DHT22;9834;48.076;11.878;2024-03-07T06:30:19;3.80;99.90
19397;DHT22;9834;48.076;11.878;2024-03-07T06:32:50;3.80;99.90
19397;DHT22;9834;48.076;11.878;2024-03-07T06:35:22;3.80;99.90
19397;DHT22;9834;48.076;11.878;2024-03-07T06:37:53;3.80;99.90
19397;DHT22;9834;48.076;11.878;2024-03-07T06:40:20;3.80;99.90
19397;DHT22;9834;48.076;11.878;2024-03-07T06:42:58;3.80;99.90
19397;DHT22;9834;48.076;11.878;2024-03-07T06:45:27;3.80;99.90
19397;DHT22;9834;48.076;11.878;2024-03-07T06:47:59;3.80;99.90
19397;DHT22;9834;48.076;11.878;2024-03-07T06:50:30;3.80;99.90
19397;DHT22;9834;48.076;11.878;2024-03-07T06:53:00;3.90;99.90
19397;DHT22;9834;48.076;11.878;2024-03-07T06:55:35;3.90;99.90
19397;DHT22;9834;48.076;11.878;2024-03-07T06:58:11;3.90;99.90
19397;DHT22;9834;48.076;11.878;2024-03-07T07:00:41;3.90;99.90
19397;DHT22;9834;48.076;11.878;2024-03-07T07:03:12;3.90;99.90
19397;DHT22;9834;48.076;11.878;2024-03-07T07:05:42;4.00;99.90
19397;DHT22;9834;48.076;11.878;2024-03-07T07:08:13;4.00;99.90
19397;DHT22;9834;48.076;11.878;2024-03-07T07:10:42;4.00;99.90
19397;DHT22;9834;48.076;11.878;2024-03-07T07:13:12;4.00;99.90
19397;DHT22;9834;48.076;11.878;2024-03-07T07:15:56;3.90;99.90
19397;DHT22;9834;48.076;11.878;2024-03-07T07:18:26;3.90;99.90
19397;DHT22;9834;48.076;11.878;2024-03-07T07:20:53;3.90;99.90
19397;DHT22;9834;48.076;11.878;2024-03-07T07:23:24;3.90;99.90
19397;DHT22;9834;48.076;11.878;2024-03-07T07:25:52;3.90;99.90
19397;DHT22;9834;48.076;11.878;2024-03-07T07:28:22;3.90;99.90
19397;DHT22;9834;48.076;11.878;2024-03-07T07:30:50;3.90;99.90
19397;DHT22;9834;48.076;11.878;2024-03-07T07:33:24;4.00;99.90
19397;DHT22;9834;48.076;11.878;2024-03-07T07:35:54;4.10;99.90
19397;DHT22;9834;48.076;11.878;2024-03-07T07:38:24;4.10;99.90
19397;DHT22;9834;48.076;11.878;2024-03-07T07:40:55;4.10;99.90
19397;DHT22;9834;48.076;11.878;2024-03-07T07:43:30;4.10;99.90
19397;DHT22;9834;48.076;11.878;2024-03-07T07:45:58;4.20;99.90
19397;DHT22;9834;48.076;11.878;2024-03-07T07:48:38;4.10;99.90
19397;DHT22;9834;48.076;11.878;2024-03-07T07:51:12;4.20;99.90
19397;DHT22;9834;48.076;11.878;2024-03-07T07:53:49;4.20;99.90
19397;DHT22;9834;48.076;11.878;2024-03-07T07:56:16;4.30;99.90
19397;DHT22;9834;48.076;11.878;2024-03-07T07:59:04;4.30;99.90
19397;DHT22;9834;48.076;11.878;2024-03-07T08:01:35;4.40;99.90
19397;DHT22;9834;48.076;11.878;2024-03-07T08:04:06;4.40;99.90
19397;DHT22;9834;48.076;11.878;2024-03-07T08:06:35;4.40;99.90
19397;DHT22;9834;48.076;11.878;2024-03-07T08:09:11;4.50;99.90
19397;DHT22;9834;48.076;11.878;2024-03-07T08:11:47;4.40;99.90
19397;DHT22;9834;48.076;11.878;2024-03-07T08:14:22;4.40;99.90
19397;DHT22;9834;48.076;11.878;2024-03-07T08:16:58;4.50;99.90
19397;DHT22;9834;48.076;11.878;2024-03-07T08:19:27;4.40;99.90
19397;DHT22;9834;48.076;11.878;2024-03-07T08:21:54;4.40;99.90
19397;DHT22;9834;48.076;11.878;2024-03-07T08:24:25;4.30;99.90
19397;DHT22;9834;48.076;11.878;2024-03-07T08:26:53;4.30;99.90
19397;DHT22;9834;48.076;11.878;2024-03-07T08:29:22;4.30;99.90
19397;DHT22;9834;48.076;11.878;2024-03-07T08:31:57;4.30;99.90
19397;DHT22;9834;48.076;11.878;2024-03-07T08:34:30;4.30;99.90
19397;DHT22;9834;48.076;11.878;2024-03-07T08:36:57;4.40;99.90
19397;DHT22;9834;48.076;11.878;2024-03-07T08:39:31;4.50;99.90
19397;DHT22;9834;48.076;11.878;2024-03-07T08:41:58;4.50;99.90
19397;DHT22;9834;48.076;11.878;2024-03-07T08:44:26;4.60;99.90
19397;DHT22;9834;48.076;11.878;2024-03-07T08:46:56;4.60;99.90
19397;DHT22;9834;48.076;11.878;2024-03-07T08:49:26;4.70;99.90
19397;DHT22;9834;48.076;11.878;2024-03-07T08:52:02;4.80;99.90
19397;DHT22;9834;48.076;11.878;2024-03-07T08:54:35;4.90;99.90
19397;DHT22;9834;48.076;11.878;2024-03-07T08:57:03;4.90;99.90
19397;DHT22;9834;48.076;11.878;2024-03-07T08:59:35;5.10;99.90
19397;DHT22;9834;48.076;11.878;2024-03-07T09:02:05;5.10;99.90
19397;DHT22;9834;48.076;11.878;2024-03-07T09:04:35;5.20;99.90
19397;DHT22;9834;48.076;11.878;2024-03-07T09:07:05;5.30;99.90
19397;DHT22;9834;48.076;11.878;2024-03-07T09:09:32;5.40;99.90
19397;DHT22;9834;48.076;11.878;2024-03-07T09:12:00;5.30;99.90
19397;DHT22;9834;48.076;11.878;2024-03-07T09:14:38;5.20;99.90
19397;DHT22;9834;48.076;11.878;2024-03-07T09:17:06;5.20;99.90
19397;DHT22;9834;48.076;11.878;2024-03-07T09:19:42;5.20;99.90
19397;DHT22;9834;48.076;11.878;2024-03-07T09:22:13;5.20;99.90
19397;DHT22;9834;48.076;11.878;2024-03-07T09:24:54;5.20;99.90
19397;DHT22;9834;48.076;11.878;2024-03-07T09:27:24;5.20;99.90
19397;DHT22;9834;48.076;11.878;2024-03-07T09:29:57;5.20;99.90
19397;DHT22;9834;48.076;11.878;2024-03-07T09:32:27;5.30;99.90
19397;DHT22;9834;48.076;11.878;2024-03-07T09:34:58;5.40;99.90
19397;DHT22;9834;48.076;11.878;2024-03-07T09:37:30;5.60;99.90
19397;DHT22;9834;48.076;11.878;2024-03-07T09:39:58;5.80;99.90
19397;DHT22;9834;48.076;11.878;2024-03-07T09:42:28;5.90;99.90
19397;DHT22;9834;48.076;11.878;2024-03-07T09:45:06;6.00;99.90
19397;DHT22;9834;48.076;11.878;2024-03-07T09:47:34;6.10;99.90
19397;DHT22;9834;48.076;11.878;2024-03-07T09:50:02;6.30;99.90
19397;DHT22;9834;48.076;11.878;2024-03-07T09:52:34;6.40;99.90
19397;DHT22;9834;48.076;11.878;2024-03-07T09:55:02;6.40;99.90
19397;DHT22;9834;48.076;11.878;2024-03-07T09:57:38;6.40;99.90
19397;DHT22;9834;48.076;11.878;2024-03-07T10:00:08;6.30;99.90
19397;DHT22;9834;48.076;11.878;2024-03-07T10:02:53;6.30;99.90
19397;DHT22;9834;48.076;11.878;2024-03-07T10:05:26;6.30;99.90
19397;DHT22;9834;48.076;11.878;2024-03-07T10:07:57;6.30;99.90
19397;DHT22;9834;48.076;11.878;2024-03-07T10:10:24;6.20;99.90
19397;DHT22;9834;48.076;11.878;2024-03-07T10:12:52;6.20;99.90
19397;DHT22;9834;48.076;11.878;2024-03-07T10:15:21;6.20;99.90
19397;DHT22;9834;48.076;11.878;2024-03-07T10:17:56;6.20;99.90
19397;DHT22;9834;48.076;11.878;2024-03-07T10:20:26;6.20;99.90
19397;DHT22;9834;48.076;11.878;2024-03-07T10:23:00;6.10;99.90
19397;DHT22;9834;48.076;11.878;2024-03-07T10:25:28;5.90;99.90
19397;DHT22;9834;48.076;11.878;2024-03-07T10:27:58;5.90;99.90
19397;DHT22;9834;48.076;11.878;2024-03-07T10:30:29;5.90;99.90
19397;DHT22;9834;48.076;11.878;2024-03-07T10:32:57;6.10;99.90
19397;DHT22;9834;48.076;11.878;2024-03-07T10:35:28;6.20;99.90
19397;DHT22;9834;48.076;11.878;2024-03-07T10:38:11;6.30;99.90
19397;DHT22;9834;48.076;11.878;2024-03-07T10:40:42;6.40;99.90
19397;DHT22;9834;48.076;11.878;2024-03-07T10:43:11;6.50;99.90
19397;DHT22;9834;48.076;11.878;2024-03-07T10:45:51;6.70;99.90
19397;DHT22;9834;48.076;11.878;2024-03-07T10:48:19;6.80;99.90
19397;DHT22;9834;48.076;11.878;2024-03-07T10:50:54;6.70;99.90
19397;DHT22;9834;48.076;11.878;2024-03-07T10:53:34;6.90;99.90
19397;DHT22;9834;48.076;11.878;2024-03-07T10:56:23;7.10;99.90
19397;DHT22;9834;48.076;11.878;2024-03-07T10:58:58;7.10;99.90
19397;DHT22;9834;48.076;11.878;2024-03-07T11:01:32;7.50;99.90
19397;DHT22;9834;48.076;11.878;2024-03-07T11:04:03;8.00;99.90
19397;DHT22;9834;48.076;11.878;2024-03-07T11:06:33;8.10;99.90
19397;DHT22;9834;48.076;11.878;2024-03-07T11:09:03;8.40;99.90
19397;DHT22;9834;48.076;11.878;2024-03-07T11:11:39;8.80;99.90
19397;DHT22;9834;48.076;11.878;2024-03-07T11:14:12;9.20;99.90
19397;DHT22;9834;48.076;11.878;2024-03-07T11:16:51;9.60;99.90
19397;DHT22;9834;48.076;11.878;2024-03-07T11:19:28;9.70;99.90
19397;DHT22;9834;48.076;11.878;2024-03-07T11:22:00;10.20;99.90
19397;DHT22;9834;48.076;11.878;2024-03-07T11:24:29;11.20;99.90
19397;DHT22;9834;48.076;11.878;2024-03-07T11:27:06;12.00;99.90
19397;DHT22;9834;48.076;11.878;2024-03-07T11:29:58;12.30;99.90
19397;DHT22;9834;48.076;11.878;2024-03-07T11:32:38;12.50;97.20
19397;DHT22;9834;48.076;11.878;2024-03-07T11:35:13;11.60;97.50
19397;DHT22;9834;48.076;11.878;2024-03-07T11:37:42;10.40;99.90
19397;DHT22;9834;48.076;11.878;2024-03-07T11:40:43;9.50;99.90
19397;DHT22;9834;48.076;11.878;2024-03-07T11:43:13;8.80;99.90
19397;DHT22;9834;48.076;11.878;2024-03-07T11:45:40;8.30;99.90
19397;DHT22;9834;48.076;11.878;2024-03-07T11:48:14;7.80;99.90
19397;DHT22;9834;48.076;11.878;2024-03-07T11:50:51;7.40;99.90
19397;DHT22;9834;48.076;11.878;2024-03-07T11:53:23;7.30;99.90
19397;DHT22;9834;48.076;11.878;2024-03-07T11:55:54;7.10;99.90
19397;DHT22;9834;48.076;11.878;2024-03-07T11:58:25;7.10;99.90
19397;DHT22;9834;48.076;11.878;2024-03-07T12:01:00;7.20;99.90
19397;DHT22;9834;48.076;11.878;2024-03-07T12:03:40;7.30;99.90
19397;DHT22;9834;48.076;11.878;2024-03-07T12:06:21;7.50;99.90
19397;DHT22;9834;48.076;11.878;2024-03-07T12:08:51;7.70;99.90
19397;DHT22;9834;48.076;11.878;2024-03-07T12:11:19;8.00;99.90
19397;DHT22;9834;48.076;11.878;2024-03-07T12:13:52;8.20;99.90
19397;DHT22;9834;48.076;11.878;2024-03-07T12:16:20;8.30;99.90
19397;DHT22;9834;48.076;11.878;2024-03-07T12:18:53;8.30;99.90
19397;DHT22;9834;48.076;11.878;2024-03-07T12:21:21;8.50;99.90
19397;DHT22;9834;48.076;11.878;2024-03-07T12:24:05;8.70;99.90
19397;DHT22;9834;48.076;11.878;2024-03-07T12:26:39;9.00;99.90
19397;DHT22;9834;48.076;11.878;2024-03-07T12:29:18;9.30;99.90
19397;DHT22;9834;48.076;11.878;2024-03-07T12:31:49;9.60;99.90
19397;DHT22;9834;48.076;11.878;2024-03-07T12:34:42;9.80;99.90
19397;DHT22;9834;48.076;11.878;2024-03-07T12:37:18;10.00;99.90
19397;DHT22;9834;48.076;11.878;2024-03-07T12:39:55;10.40;99.90
19397;DHT22;9834;48.076;11.878;2024-03-07T12:42:35;10.70;99.90
19397;DHT22;9834;48.076;11.878;2024-03-07T12:45:08;11.10;99.90
19397;DHT22;9834;48.076;11.878;2024-03-07T12:47:48;11.10;99.90
19397;DHT22;9834;48.076;11.878;2024-03-07T12:50:21;11.20;95.20
19397;DHT22;9834;48.076;11.878;2024-03-07T12:52:49;11.10;93.80
19397;DHT22;9834;48.076;11.878;2024-03-07T12:55:18;11.10;93.10
19397;DHT22;9834;48.076;11.878;2024-03-07T12:57:48;10.80;92.50
19397;DHT22;9834;48.076;11.878;2024-03-07T13:00:16;10.50;94.80
19397;DHT22;9834;48.076;11.878;2024-03-07T13:02:50;9.80;95.90
19397;DHT22;9834;48.076;11.878;2024-03-07T13:05:18;9.40;98.40
19397;DHT22;9834;48.076;11.878;2024-03-07T13:07:52;9.20;99.90
19397;DHT22;9834;48.076;11.878;2024-03-07T13:10:22;9.00;99.90
19397;DHT22;9834;48.076;11.878;2024-03-07T13:12:50;8.90;98.70
19397;DHT22;9834;48.076;11.878;2024-03-07T13:15:18;8.90;99.90
19397;DHT22;9834;48.076;11.878;2024-03-07T13:17:53;8.70;99.90
19397;DHT22;9834;48.076;11.878;2024-03-07T13:20:30;8.70;99.90
19397;DHT22;9834;48.076;11.878;2024-03-07T13:22:59;8.80;99.90
19397;DHT22;9834;48.076;11.878;2024-03-07T13:25:34;8.90;99.90
19397;DHT22;9834;48.076;11.878;2024-03-07T13:28:03;8.90;99.90
19397;DHT22;9834;48.076;11.878;2024-03-07T13:30:34;9.10;99.90
19397;DHT22;9834;48.076;11.878;2024-03-07T13:33:07;9.30;99.90
19397;DHT22;9834;48.076;11.878;2024-03-07T13:35:40;9.20;99.90
19397;DHT22;9834;48.076;11.878;2024-03-07T13:38:15;9.20;99.90
19397;DHT22;9834;48.076;11.878;2024-03-07T13:40:43;9.30;99.90
19397;DHT22;9834;48.076;11.878;2024-03-07T13:43:13;9.40;99.90
19397;DHT22;9834;48.076;11.878;2024-03-07T13:45:40;9.50;99.90
19397;DHT22;9834;48.076;11.878;2024-03-07T13:48:10;9.70;99.80
19397;DHT22;9834;48.076;11.878;2024-03-07T13:50:42;9.70;99.80
19397;DHT22;9834;48.076;11.878;2024-03-07T13:53:12;9.50;99.90
19397;DHT22;9834;48.076;11.878;2024-03-07T13:55:55;9.00;99.90
19397;DHT22;9834;48.076;11.878;2024-03-07T13:58:44;8.60;99.90
19397;DHT22;9834;48.076;11.878;2024-03-07T14:01:26;8.30;99.90
19397;DHT22;9834;48.076;11.878;2024-03-07T14:04:24;8.00;99.90
19397;DHT22;9834;48.076;11.878;2024-03-07T14:07:22;7.70;99.90
19397;DHT22;9834;48.076;11.878;2024-03-07T14:10:50;7.60;99.90
19397;DHT22;9834;48.076;11.878;2024-03-07T14:13:35;7.50;99.90
19397;DHT22;9834;48.076;11.878;2024-03-07T14:16:36;7.60;99.90
19397;DHT22;9834;48.076;11.878;2024-03-07T14:19:59;7.60;99.90
19397;DHT22;9834;48.076;11.878;2024-03-07T14:23:14;7.50;99.90
19397;DHT22;9834;48.076;11.878;2024-03-07T14:29:12;7.50;99.90
19397;DHT22;9834;48.076;11.878;2024-03-07T14:31:43;7.60;99.90
19397;DHT22;9834;48.076;11.878;2024-03-07T14:34:23;7.60;99.90
19397;DHT22;9834;48.076;11.878;2024-03-07T14:37:04;7.50;99.90
19397;DHT22;9834;48.076;11.878;2024-03-07T14:39:38;7.50;99.90
19397;DHT22;9834;48.076;11.878;2024-03-07T14:42:10;7.40;99.90
19397;DHT22;9834;48.076;11.878;2024-03-07T14:44:43;7.40;99.90
19397;DHT22;9834;48.076;11.878;2024-03-07T14:47:19;7.30;99.90
19397;DHT22;9834;48.076;11.878;2024-03-07T14:49:49;7.30;99.90
19397;DHT22;9834;48.076;11.878;2024-03-07T14:52:17;7.30;99.90
19397;DHT22;9834;48.076;11.878;2024-03-07T14:54:44;7.10;99.90
19397;DHT22;9834;48.076;11.878;2024-03-07T14:57:16;7.10;99.90
19397;DHT22;9834;48.076;11.878;2024-03-07T14:59:44;7.00;99.90
19397;DHT22;9834;48.076;11.878;2024-03-07T15:02:12;7.00;99.90
19397;DHT22;9834;48.076;11.878;2024-03-07T15:04:49;7.00;99.90
19397;DHT22;9834;48.076;11.878;2024-03-07T15:07:20;6.90;99.90
19397;DHT22;9834;48.076;11.878;2024-03-07T15:09:52;6.80;99.90
19397;DHT22;9834;48.076;11.878;2024-03-07T15:12:24;6.70;99.90
19397;DHT22;9834;48.076;11.878;2024-03-07T15:14:54;6.70;99.90
19397;DHT22;9834;48.076;11.878;2024-03-07T15:17:22;6.70;99.90
19397;DHT22;9834;48.076;11.878;2024-03-07T15:19:49;6.80;99.90
19397;DHT22;9834;48.076;11.878;2024-03-07T15:22:16;6.70;99.90
19397;DHT22;9834;48.076;11.878;2024-03-07T15:24:49;6.70;99.90
19397;DHT22;9834;48.076;11.878;2024-03-07T15:27:17;6.70;99.90
19397;DHT22;9834;48.076;11.878;2024-03-07T15:29:50;6.60;99.90
19397;DHT22;9834;48.076;11.878;2024-03-07T15:32:18;6.60;99.90
19397;DHT22;9834;48.076;11.878;2024-03-07T15:34:51;6.60;99.90
19397;DHT22;9834;48.076;11.878;2024-03-07T15:37:24;6.60;99.90
19397;DHT22;9834;48.076;11.878;2024-03-07T15:39:54;6.60;99.90
19397;DHT22;9834;48.076;11.878;2024-03-07T15:42:24;6.60;99.90
19397;DHT22;9834;48.076;11.878;2024-03-07T15:44:53;6.40;99.90
19397;DHT22;9834;48.076;11.878;2024-03-07T15:47:21;6.40;99.90
19397;DHT22;9834;48.076;11.878;2024-03-07T15:49:49;6.30;99.90
19397;DHT22;9834;48.076;11.878;2024-03-07T15:52:17;6.40;99.90
19397;DHT22;9834;48.076;11.878;2024-03-07T15:54:47;6.40;99.90
19397;DHT22;9834;48.076;11.878;2024-03-07T15:57:15;6.30;99.90
19397;DHT22;9834;48.076;11.878;2024-03-07T15:59:43;6.30;99.90
19397;DHT22;9834;48.076;11.878;2024-03-07T16:02:15;6.30;99.90
19397;DHT22;9834;48.076;11.878;2024-03-07T16:04:42;6.20;99.90
19397;DHT22;9834;48.076;11.878;2024-03-07T16:07:10;6.20;99.90
19397;DHT22;9834;48.076;11.878;2024-03-07T16:09:37;6.20;99.90
19397;DHT22;9834;48.076;11.878;2024-03-07T16:12:05;6.10;99.90
19397;DHT22;9834;48.076;11.878;2024-03-07T16:14:33;6.10;99.90
19397;DHT22;9834;48.076;11.878;2024-03-07T16:17:01;6.20;99.90